Time;durP1;ratioP1;P1;durP2;ratioP2;P2;SDS_P1;SDS_P2;PMS_P1;PMS_P2;Temp;Humidity;BMP_temperature;BMP_pressure;BME280_temperature;BME280_humidity;BME280_pressure;Samples;Min_cycle;Max_cycle;Signal;HPM_P1;HPM_P2
2022/11/27 00:02:20;;;;;;;23.42;11.55;;;10.80;99.90;;;;;;5012362;28;20413;-67
2022/11/27 00:04:46;;;;;;;26.23;12.38;;;10.70;99.90;;;;;;5010287;28;20034;-67
2022/11/27 00:07:12;;;;;;;23.05;11.15;;;10.80;99.90;;;;;;5012643;28;20021;-67
2022/11/27 00:09:37;;;;;;;22.30;11.40;;;10.80;99.90;;;;;;5015758;28;20035;-67
2022/11/27 00:12:03;;;;;;;25.73;11.57;;;10.80;99.90;;;;;;5024777;28;20457;-67
2022/11/27 00:14:33;;;;;;;20.65;11.00;;;10.80;99.90;;;;;;5011871;28;20034;-66
2022/11/27 00:16:59;;;;;;;20.83;11.45;;;10.80;99.90;;;;;;5012721;28;20026;-66
2022/11/27 00:19:25;;;;;;;20.48;10.32;;;10.80;99.90;;;;;;5012489;28;20057;-67
2022/11/27 00:21:51;;;;;;;20.70;10.00;;;10.80;99.90;;;;;;5008527;28;20030;-67
2022/11/27 00:24:16;;;;;;;19.27;10.15;;;10.80;99.90;;;;;;5011548;28;20040;-67
2022/11/27 00:26:42;;;;;;;20.60;11.07;;;10.80;99.90;;;;;;5003676;28;20030;-67
2022/11/27 00:29:09;;;;;;;15.75;10.27;;;10.70;99.90;;;;;;5011551;28;20473;-67
2022/11/27 00:31:40;;;;;;;18.65;9.68;;;10.80;99.90;;;;;;5012620;28;20057;-66
2022/11/27 00:34:07;;;;;;;20.52;10.25;;;10.70;99.90;;;;;;5010242;28;20512;-67
2022/11/27 00:36:34;;;;;;;20.67;10.38;;;10.80;99.90;;;;;;5012017;28;20509;-67
2022/11/27 00:39:00;;;;;;;23.55;10.13;;;10.80;99.90;;;;;;5011417;28;20571;-67
2022/11/27 00:41:28;;;;;;;19.83;10.60;;;10.70;99.90;;;;;;5012436;28;20030;-67
2022/11/27 00:43:54;;;;;;;22.70;10.32;;;10.70;99.90;;;;;;5009353;28;20489;-67
2022/11/27 00:46:26;;;;;;;16.27;9.85;;;10.70;99.90;;;;;;5013289;28;20041;-67
2022/11/27 00:48:52;;;;;;;17.63;10.60;;;10.70;99.90;;;;;;5009853;28;20080;-67
2022/11/27 00:51:20;;;;;;;20.02;10.20;;;10.70;99.90;;;;;;5013229;28;20061;-68
2022/11/27 00:53:46;;;;;;;16.88;9.38;;;10.70;99.90;;;;;;5008258;28;20478;-68
2022/11/27 00:56:21;;;;;;;14.45;9.90;;;10.70;99.90;;;;;;5011453;28;20030;-68
2022/11/27 00:58:48;;;;;;;15.13;10.30;;;10.70;99.90;;;;;;5010695;28;20041;-68
2022/11/27 01:01:17;;;;;;;19.80;9.55;;;10.70;99.90;;;;;;4993495;28;20034;-67
2022/11/27 01:03:44;;;;;;;19.38;10.07;;;10.60;99.90;;;;;;5009124;28;20038;-67
2022/11/27 01:06:10;;;;;;;21.85;10.77;;;10.60;99.90;;;;;;5032218;28;20035;-68
2022/11/27 01:08:35;;;;;;;17.67;10.20;;;10.60;99.90;;;;;;5011333;28;20380;-68
2022/11/27 01:11:01;;;;;;;17.35;9.55;;;10.60;99.90;;;;;;5011965;28;20034;-68
2022/11/27 01:13:34;;;;;;;24.40;10.00;;;10.60;99.90;;;;;;5009614;28;20072;-68
2022/11/27 01:16:07;;;;;;;19.58;10.45;;;10.60;99.90;;;;;;5012472;28;20104;-68
2022/11/27 01:18:35;;;;;;;19.80;11.27;;;10.60;99.90;;;;;;5011200;28;20038;-68
2022/11/27 01:21:01;;;;;;;18.00;10.20;;;10.60;99.90;;;;;;5012005;28;20057;-67
2022/11/27 01:23:29;;;;;;;17.10;9.63;;;10.60;99.90;;;;;;5010757;28;20030;-67
2022/11/27 01:25:54;;;;;;;15.88;9.98;;;10.60;99.90;;;;;;5012546;28;20104;-67
2022/11/27 01:28:22;;;;;;;14.75;10.13;;;10.60;99.90;;;;;;5011286;28;20141;-67
2022/11/27 01:30:48;;;;;;;17.38;10.35;;;10.60;99.90;;;;;;5011025;28;20073;-67
2022/11/27 01:33:16;;;;;;;16.70;9.15;;;10.60;99.90;;;;;;5011320;28;20655;-67
2022/11/27 01:35:41;;;;;;;16.85;9.40;;;10.60;99.90;;;;;;5007955;28;20065;-67
2022/11/27 01:38:07;;;;;;;17.98;9.52;;;10.60;99.90;;;;;;5008904;28;20041;-68
2022/11/27 01:40:33;;;;;;;15.63;9.35;;;10.60;99.90;;;;;;5009525;28;20503;-67
2022/11/27 01:42:59;;;;;;;19.30;9.80;;;10.60;99.90;;;;;;5011372;28;20120;-67
2022/11/27 01:45:25;;;;;;;21.13;10.23;;;10.50;99.90;;;;;;5010596;28;20026;-67
2022/11/27 01:48:00;;;;;;;20.75;10.27;;;10.50;99.90;;;;;;5011998;28;20034;-67
2022/11/27 01:50:32;;;;;;;18.05;9.35;;;10.50;99.90;;;;;;5005818;28;20038;-67
2022/11/27 01:53:14;;;;;;;16.00;9.90;;;10.50;99.90;;;;;;4993158;28;20030;-67
2022/11/27 01:55:48;;;;;;;18.13;9.30;;;10.60;99.90;;;;;;5009062;28;20112;-67
2022/11/27 01:58:20;;;;;;;16.50;8.27;;;10.60;99.90;;;;;;5007761;28;20112;-67
2022/11/27 02:00:46;;;;;;;17.27;9.50;;;10.60;99.90;;;;;;5009724;28;20046;-67
2022/11/27 02:03:12;;;;;;;19.88;9.63;;;10.50;99.90;;;;;;5011206;28;20033;-67
2022/11/27 02:05:37;;;;;;;23.15;10.38;;;10.50;99.90;;;;;;5009959;28;20018;-67
2022/11/27 02:08:10;;;;;;;16.92;9.90;;;10.60;99.90;;;;;;5002215;28;20080;-67
2022/11/27 02:10:39;;;;;;;14.57;9.52;;;10.60;99.90;;;;;;5007686;28;20034;-67
2022/11/27 02:13:12;;;;;;;21.77;9.38;;;10.50;99.90;;;;;;5010941;28;20029;-67
2022/11/27 02:15:56;;;;;;;19.83;10.35;;;10.50;99.90;;;;;;5009898;28;20034;-67
2022/11/27 02:18:49;;;;;;;18.38;9.23;;;10.50;99.90;;;;;;5000482;28;20045;-67
2022/11/27 02:21:21;;;;;;;16.70;9.95;;;10.50;99.90;;;;;;5008188;28;20038;-67
2022/11/27 02:24:16;;;;;;;17.15;9.23;;;10.50;99.90;;;;;;5010563;28;20049;-67
2022/11/27 02:27:03;;;;;;;19.40;10.25;;;10.50;99.90;;;;;;5006280;28;20050;-67
2022/11/27 02:29:32;;;;;;;19.35;9.20;;;10.40;99.90;;;;;;5009525;28;20034;-67
2022/11/27 02:32:18;;;;;;;16.13;10.25;;;10.40;99.90;;;;;;5002665;28;20030;-68
2022/11/27 02:35:02;;;;;;;14.90;8.75;;;10.40;99.90;;;;;;5002743;28;20172;-68
2022/11/27 02:37:44;;;;;;;20.63;11.20;;;10.30;99.90;;;;;;4992052;28;20035;-67
2022/11/27 02:40:16;;;;;;;20.52;10.52;;;10.30;99.90;;;;;;5007433;28;20025;-67
2022/11/27 02:42:49;;;;;;;16.38;9.23;;;10.20;99.90;;;;;;5009085;28;20133;-67
2022/11/27 02:45:22;;;;;;;21.17;10.38;;;10.20;99.90;;;;;;5009634;28;20042;-67
2022/11/27 02:47:49;;;;;;;16.85;10.30;;;10.20;99.90;;;;;;5011220;28;20079;-66
2022/11/27 02:50:21;;;;;;;16.02;9.95;;;10.10;99.90;;;;;;5010321;28;20023;-67
2022/11/27 02:52:49;;;;;;;20.17;10.82;;;10.10;99.90;;;;;;5009543;28;20041;-67
2022/11/27 02:55:19;;;;;;;15.60;10.35;;;10.10;99.90;;;;;;5010811;28;20079;-67
2022/11/27 02:57:49;;;;;;;19.83;11.68;;;10.10;99.90;;;;;;5010938;28;20107;-67
2022/11/27 03:00:15;;;;;;;18.42;9.95;;;10.00;99.90;;;;;;5009902;28;20089;-67
2022/11/27 03:02:51;;;;;;;19.38;10.70;;;10.00;99.90;;;;;;5010103;28;20592;-67
2022/11/27 03:05:21;;;;;;;26.05;10.65;;;10.00;99.90;;;;;;5005440;28;20018;-67
2022/11/27 03:08:14;;;;;;;19.77;10.57;;;10.00;99.90;;;;;;4995410;28;20031;-67
2022/11/27 03:10:55;;;;;;;16.33;9.88;;;9.90;99.90;;;;;;5021819;28;20040;-68
2022/11/27 03:13:21;;;;;;;14.88;10.52;;;9.90;99.90;;;;;;5013868;28;20057;-67
2022/11/27 03:16:02;;;;;;;15.50;10.32;;;9.90;99.90;;;;;;5014046;28;20030;-67
2022/11/27 03:18:43;;;;;;;19.50;10.93;;;9.90;99.90;;;;;;5012523;28;20038;-67
2022/11/27 03:21:26;;;;;;;19.42;11.38;;;9.90;99.90;;;;;;5013534;28;20033;-67
2022/11/27 03:23:54;;;;;;;19.15;12.23;;;9.90;99.90;;;;;;5014145;28;20581;-67
2022/11/27 03:26:19;;;;;;;19.73;11.30;;;9.90;99.90;;;;;;5014237;28;20452;-67
2022/11/27 03:28:46;;;;;;;17.08;10.73;;;9.90;99.90;;;;;;5013417;28;20057;-67
2022/11/27 03:31:12;;;;;;;19.88;10.88;;;9.90;99.90;;;;;;5013319;28;20037;-67
2022/11/27 03:33:38;;;;;;;17.55;9.88;;;9.90;99.90;;;;;;5013632;28;20503;-67
2022/11/27 03:36:15;;;;;;;16.73;10.85;;;9.80;99.90;;;;;;5013348;28;20505;-67
2022/11/27 03:38:43;;;;;;;19.83;10.10;;;9.80;99.90;;;;;;5008775;28;20490;-67
2022/11/27 03:41:23;;;;;;;15.07;9.63;;;9.80;99.90;;;;;;5013278;28;20518;-67
2022/11/27 03:44:13;;;;;;;15.32;10.13;;;9.80;99.90;;;;;;5012293;28;20393;-67
2022/11/27 03:46:59;;;;;;;17.40;10.35;;;9.70;99.90;;;;;;5013060;28;20539;-68
2022/11/27 03:50:04;;;;;;;15.15;9.50;;;9.70;99.90;;;;;;5012693;28;20719;-67
2022/11/27 03:52:43;;;;;;;22.33;9.73;;;9.70;99.90;;;;;;5012684;28;20041;-67
2022/11/27 03:55:16;;;;;;;17.40;10.13;;;9.60;99.90;;;;;;5011724;28;20401;-67
2022/11/27 03:57:48;;;;;;;15.30;11.10;;;9.60;99.90;;;;;;5013664;28;20060;-67
2022/11/27 04:00:14;;;;;;;18.80;11.13;;;9.60;99.90;;;;;;5013037;28;20478;-67
2022/11/27 04:02:46;;;;;;;20.08;10.68;;;9.60;99.90;;;;;;5011148;28;20032;-67
2022/11/27 04:05:13;;;;;;;15.70;10.63;;;9.60;99.90;;;;;;5010629;28;20017;-67
2022/11/27 04:07:39;;;;;;;16.65;11.43;;;9.60;99.90;;;;;;5013953;28;20135;-67
2022/11/27 04:10:05;;;;;;;16.45;10.65;;;9.60;99.90;;;;;;5011727;28;20026;-67
2022/11/27 04:12:31;;;;;;;19.67;11.07;;;9.60;99.90;;;;;;5011729;28;20030;-67
2022/11/27 04:14:57;;;;;;;16.83;11.43;;;9.60;99.90;;;;;;5012549;28;20032;-67
2022/11/27 04:17:23;;;;;;;16.05;10.82;;;9.60;99.90;;;;;;5012663;28;20125;-67
2022/11/27 04:19:48;;;;;;;18.45;10.77;;;9.60;99.90;;;;;;5011661;28;20122;-67
2022/11/27 04:22:15;;;;;;;14.43;9.63;;;9.70;99.90;;;;;;5012035;28;20045;-67
2022/11/27 04:24:41;;;;;;;20.02;10.40;;;9.60;99.90;;;;;;5012830;28;20022;-67
2022/11/27 04:27:07;;;;;;;17.92;10.00;;;9.60;99.90;;;;;;5011598;28;20026;-67
2022/11/27 04:29:35;;;;;;;20.75;11.15;;;9.60;99.90;;;;;;5009247;28;20041;-67
2022/11/27 04:32:01;;;;;;;18.10;10.63;;;9.50;99.90;;;;;;5012104;28;20053;-67
2022/11/27 04:34:27;;;;;;;15.38;9.88;;;9.50;99.90;;;;;;5012205;28;20044;-67
2022/11/27 04:36:54;;;;;;;22.90;12.18;;;9.50;99.90;;;;;;5011504;28;20022;-67
2022/11/27 04:39:19;;;;;;;15.90;10.15;;;9.50;99.90;;;;;;5011248;28;20124;-68
2022/11/27 04:41:46;;;;;;;20.73;11.88;;;9.40;99.90;;;;;;5011456;28;20111;-67
2022/11/27 04:44:12;;;;;;;19.90;10.93;;;9.30;99.90;;;;;;5011517;28;20029;-66
2022/11/27 04:46:38;;;;;;;16.00;10.15;;;9.30;99.90;;;;;;5011309;28;20022;-66
2022/11/27 04:49:04;;;;;;;22.65;12.25;;;9.30;99.90;;;;;;5008220;28;20109;-66
2022/11/27 04:51:29;;;;;;;18.58;11.82;;;9.20;99.90;;;;;;5008112;28;20114;-66
2022/11/27 04:53:55;;;;;;;20.58;12.20;;;9.20;99.90;;;;;;5009048;28;20456;-66
2022/11/27 04:56:21;;;;;;;20.92;10.93;;;9.10;99.90;;;;;;5012626;28;20149;-66
2022/11/27 04:58:47;;;;;;;19.20;10.63;;;9.10;99.90;;;;;;5012065;28;20444;-67
2022/11/27 05:01:13;;;;;;;17.00;10.80;;;9.10;99.90;;;;;;5011188;28;20366;-66
2022/11/27 05:03:39;;;;;;;14.48;9.88;;;9.00;99.90;;;;;;5010986;28;20449;-68
2022/11/27 05:06:05;;;;;;;18.58;10.93;;;9.00;99.90;;;;;;5011239;28;20464;-68
2022/11/27 05:08:32;;;;;;;22.88;11.48;;;8.90;99.90;;;;;;5010645;28;20033;-68
2022/11/27 05:11:02;;;;;;;17.58;11.18;;;8.90;99.90;;;;;;5010952;28;20414;-68
2022/11/27 05:13:27;;;;;;;12.88;10.05;;;8.90;99.90;;;;;;5011589;28;20056;-68
2022/11/27 05:15:53;;;;;;;14.82;10.05;;;8.80;99.90;;;;;;5009873;28;20057;-68
2022/11/27 05:18:19;;;;;;;16.40;10.93;;;8.80;99.90;;;;;;5012228;28;20034;-67
2022/11/27 05:20:45;;;;;;;17.40;10.68;;;8.70;99.90;;;;;;5010343;28;20436;-67
2022/11/27 05:23:10;;;;;;;14.75;10.35;;;8.70;99.90;;;;;;5012169;28;20029;-67
2022/11/27 05:25:36;;;;;;;16.65;10.90;;;8.60;99.90;;;;;;5007448;28;20034;-68
2022/11/27 05:28:02;;;;;;;16.42;10.60;;;8.60;99.90;;;;;;5011362;28;20026;-68
2022/11/27 05:30:27;;;;;;;17.45;11.57;;;8.50;99.90;;;;;;5009935;28;20034;-68
2022/11/27 05:32:53;;;;;;;13.75;9.98;;;8.50;99.90;;;;;;5011747;28;20025;-68
2022/11/27 05:35:18;;;;;;;17.42;11.00;;;8.40;99.90;;;;;;5010747;28;20042;-68
2022/11/27 05:37:44;;;;;;;16.77;10.98;;;8.30;99.90;;;;;;5011088;28;20042;-68
2022/11/27 05:40:10;;;;;;;17.95;11.45;;;8.30;99.90;;;;;;5010938;28;20034;-68
2022/11/27 05:42:36;;;;;;;18.05;11.60;;;8.20;99.90;;;;;;5008857;28;20505;-68
2022/11/27 05:45:02;;;;;;;18.88;10.50;;;8.10;99.90;;;;;;5011761;28;20029;-68
2022/11/27 05:47:27;;;;;;;16.50;11.30;;;8.10;99.90;;;;;;5010667;28;20022;-67
2022/11/27 05:49:53;;;;;;;18.73;11.40;;;8.00;99.90;;;;;;5010521;28;20481;-67
2022/11/27 05:52:19;;;;;;;20.20;11.65;;;8.00;99.90;;;;;;5011853;28;20033;-67
2022/11/27 05:54:45;;;;;;;21.42;11.73;;;8.00;99.90;;;;;;5010177;28;20060;-67
2022/11/27 05:57:11;;;;;;;20.48;11.25;;;7.90;99.90;;;;;;5010725;28;20044;-67
2022/11/27 05:59:37;;;;;;;21.40;12.18;;;7.90;99.90;;;;;;5010039;28;20042;-67
2022/11/27 06:02:03;;;;;;;18.15;10.68;;;7.80;99.90;;;;;;5011392;28;20481;-67
2022/11/27 06:04:34;;;;;;;22.38;12.68;;;7.80;99.90;;;;;;5011022;28;20569;-67
2022/11/27 06:07:00;;;;;;;22.90;14.02;;;7.70;99.90;;;;;;5004622;28;20101;-67
2022/11/27 06:09:26;;;;;;;21.90;12.98;;;7.70;99.90;;;;;;5010950;28;20113;-67
2022/11/27 06:11:51;;;;;;;23.05;12.32;;;7.70;99.90;;;;;;5013706;28;20025;-67
2022/11/27 06:14:18;;;;;;;18.77;11.57;;;7.60;99.90;;;;;;5007901;28;20430;-67
2022/11/27 06:16:44;;;;;;;23.25;12.70;;;7.60;99.90;;;;;;5011090;28;20076;-67
2022/11/27 06:19:09;;;;;;;25.23;12.38;;;7.50;99.90;;;;;;5010499;28;20504;-67
2022/11/27 06:21:35;;;;;;;22.25;11.80;;;7.60;99.90;;;;;;5010787;28;20029;-67
2022/11/27 06:24:02;;;;;;;19.08;12.68;;;7.50;99.90;;;;;;5010844;28;20022;-67
2022/11/27 06:26:30;;;;;;;19.17;11.40;;;7.40;99.90;;;;;;5010083;28;20030;-67
2022/11/27 06:28:57;;;;;;;21.55;12.02;;;7.40;99.90;;;;;;5010460;28;20049;-67
2022/11/27 06:31:29;;;;;;;20.88;11.38;;;7.40;99.90;;;;;;5011355;28;20032;-67
2022/11/27 06:33:56;;;;;;;18.92;11.65;;;7.40;99.90;;;;;;5008324;28;20034;-67
2022/11/27 06:36:25;;;;;;;17.95;10.02;;;7.40;99.90;;;;;;5010756;28;20042;-67
2022/11/27 06:38:51;;;;;;;17.95;11.52;;;7.40;99.90;;;;;;5009967;28;20042;-66
2022/11/27 06:41:19;;;;;;;19.40;11.32;;;7.30;99.90;;;;;;5010155;28;20072;-67
2022/11/27 06:43:45;;;;;;;19.27;11.18;;;7.30;99.90;;;;;;5015460;28;20082;-67
2022/11/27 06:46:14;;;;;;;20.08;11.38;;;7.30;99.90;;;;;;5013946;28;20028;-67
2022/11/27 06:48:41;;;;;;;20.70;11.93;;;7.30;99.90;;;;;;5014800;28;20038;-67
2022/11/27 06:51:10;;;;;;;18.70;10.65;;;7.30;99.90;;;;;;5013897;28;20649;-67
2022/11/27 06:53:36;;;;;;;21.27;11.85;;;7.30;99.90;;;;;;5014317;28;20052;-67
2022/11/27 06:56:08;;;;;;;16.80;10.65;;;7.30;99.90;;;;;;5020486;28;20025;-67
2022/11/27 06:58:34;;;;;;;20.17;11.63;;;7.20;99.90;;;;;;5020584;28;20042;-67
2022/11/27 07:01:02;;;;;;;16.60;10.02;;;7.20;99.90;;;;;;5014739;28;20026;-67
2022/11/27 07:03:28;;;;;;;21.92;12.23;;;7.20;99.90;;;;;;5005489;28;20034;-67
2022/11/27 07:05:57;;;;;;;17.05;11.57;;;7.20;99.90;;;;;;5014255;28;20094;-67
2022/11/27 07:08:23;;;;;;;20.17;10.18;;;7.10;99.90;;;;;;5005326;28;20516;-67
2022/11/27 07:10:49;;;;;;;17.88;10.45;;;7.20;99.90;;;;;;5013431;28;20124;-67
2022/11/27 07:13:15;;;;;;;19.63;11.52;;;7.10;99.90;;;;;;5003920;28;20101;-67
2022/11/27 07:15:40;;;;;;;19.95;11.88;;;7.10;99.90;;;;;;4995130;28;20084;-67
2022/11/27 07:18:06;;;;;;;21.13;12.25;;;7.10;99.90;;;;;;5009313;28;20033;-66
2022/11/27 07:20:33;;;;;;;21.08;12.50;;;7.10;99.90;;;;;;5013981;28;20037;-67
2022/11/27 07:23:00;;;;;;;17.33;11.55;;;7.10;99.90;;;;;;5014200;28;20054;-67
2022/11/27 07:25:25;;;;;;;15.57;10.23;;;7.10;99.90;;;;;;5033068;28;20080;-66
2022/11/27 07:27:52;;;;;;;16.88;10.45;;;7.10;99.90;;;;;;5015191;28;20034;-66
2022/11/27 07:30:18;;;;;;;16.20;10.90;;;7.00;99.90;;;;;;5010375;28;20537;-66
2022/11/27 07:32:44;;;;;;;19.33;12.02;;;7.10;99.90;;;;;;5009290;28;20080;-65
2022/11/27 07:35:09;;;;;;;18.40;11.98;;;7.00;99.90;;;;;;5014142;28;20045;-66
2022/11/27 07:37:35;;;;;;;18.10;10.95;;;7.10;99.90;;;;;;5013225;28;20065;-66
2022/11/27 07:40:01;;;;;;;19.52;11.45;;;7.00;99.90;;;;;;5010388;28;20049;-67
2022/11/27 07:42:27;;;;;;;18.77;11.27;;;7.00;99.90;;;;;;5001936;28;20036;-65
2022/11/27 07:44:53;;;;;;;23.83;10.68;;;7.00;99.90;;;;;;5011983;28;22385;-66
2022/11/27 07:47:18;;;;;;;18.27;10.73;;;7.00;99.90;;;;;;5002360;28;20030;-66
2022/11/27 07:49:46;;;;;;;20.73;10.45;;;7.00;99.90;;;;;;5013234;28;20645;-66
2022/11/27 07:52:15;;;;;;;16.27;10.93;;;7.00;99.90;;;;;;5013584;28;20107;-67
2022/11/27 07:54:40;;;;;;;19.50;11.40;;;7.00;99.90;;;;;;5011286;28;20428;-67
2022/11/27 07:57:07;;;;;;;18.02;10.60;;;7.00;99.90;;;;;;5009545;28;20405;-66
2022/11/27 07:59:33;;;;;;;18.88;10.73;;;7.00;99.90;;;;;;5016030;28;20037;-66
2022/11/27 08:01:59;;;;;;;16.95;11.00;;;7.00;99.90;;;;;;5013494;28;20121;-65
2022/11/27 08:04:26;;;;;;;18.52;10.13;;;7.00;99.90;;;;;;5013132;28;20030;-66
2022/11/27 08:06:51;;;;;;;20.38;11.60;;;7.00;99.90;;;;;;5011763;28;20041;-67
2022/11/27 08:09:17;;;;;;;17.35;10.23;;;7.00;99.90;;;;;;5010617;28;20033;-66
2022/11/27 08:11:42;;;;;;;17.25;10.52;;;7.00;99.90;;;;;;5010981;28;20030;-66
2022/11/27 08:14:09;;;;;;;20.27;11.55;;;7.00;99.90;;;;;;5014135;28;20026;-66
2022/11/27 08:16:35;;;;;;;17.95;10.68;;;7.00;99.90;;;;;;5006862;28;20061;-66
2022/11/27 08:19:01;;;;;;;18.10;11.70;;;7.00;99.90;;;;;;5016766;28;20038;-67
2022/11/27 08:21:28;;;;;;;28.27;11.75;;;7.00;99.90;;;;;;5012265;28;20022;-67
2022/11/27 08:23:55;;;;;;;18.85;10.70;;;7.00;99.90;;;;;;5012294;28;20137;-67
2022/11/27 08:26:21;;;;;;;24.13;11.57;;;7.10;99.90;;;;;;5013048;28;20471;-67
2022/11/27 08:28:51;;;;;;;19.40;12.52;;;7.10;99.90;;;;;;5012382;28;20389;-67
2022/11/27 08:31:20;;;;;;;18.83;11.07;;;7.10;99.90;;;;;;5015217;28;20030;-65
2022/11/27 08:33:46;;;;;;;20.02;11.68;;;7.10;99.90;;;;;;5018472;28;20345;-66
2022/11/27 08:36:12;;;;;;;23.15;11.85;;;7.10;99.90;;;;;;5013400;28;20053;-67
2022/11/27 08:38:38;;;;;;;19.48;12.15;;;7.10;99.90;;;;;;5012479;28;20046;-66
2022/11/27 08:41:05;;;;;;;16.88;12.02;;;7.20;99.90;;;;;;5008032;28;20048;-67
2022/11/27 08:43:31;;;;;;;23.13;11.77;;;7.20;99.90;;;;;;5013508;28;20029;-66
2022/11/27 08:46:03;;;;;;;22.80;12.18;;;7.20;99.90;;;;;;5011929;28;20480;-66
2022/11/27 08:48:29;;;;;;;21.17;11.95;;;7.20;99.90;;;;;;4992384;28;20027;-66
2022/11/27 08:50:55;;;;;;;24.70;13.75;;;7.20;99.90;;;;;;5005821;28;20038;-67
2022/11/27 08:53:21;;;;;;;17.23;11.23;;;7.20;99.90;;;;;;5012247;28;20101;-66
2022/11/27 08:55:47;;;;;;;22.30;12.63;;;7.30;99.90;;;;;;5012638;28;20021;-67
2022/11/27 08:58:13;;;;;;;19.77;11.80;;;7.30;99.90;;;;;;5012476;28;20132;-67
2022/11/27 09:00:40;;;;;;;18.58;12.02;;;7.30;99.90;;;;;;5012133;28;20022;-67
2022/11/27 09:03:05;;;;;;;17.73;11.70;;;7.30;99.90;;;;;;5012855;28;20026;-66
2022/11/27 09:05:31;;;;;;;20.75;12.13;;;7.30;99.90;;;;;;5007420;28;20026;-66
2022/11/27 09:07:58;;;;;;;16.35;10.63;;;7.30;99.90;;;;;;4993135;28;20026;-66
2022/11/27 09:10:24;;;;;;;16.42;10.63;;;7.30;99.90;;;;;;5011101;28;20109;-66
2022/11/27 09:12:50;;;;;;;17.52;11.32;;;7.30;99.90;;;;;;5012136;28;20030;-67
2022/11/27 09:15:17;;;;;;;13.52;10.35;;;7.40;99.90;;;;;;5012487;28;20493;-67
2022/11/27 09:17:43;;;;;;;19.73;11.65;;;7.40;99.90;;;;;;5015798;28;20500;-67
2022/11/27 09:20:10;;;;;;;15.52;11.18;;;7.50;99.90;;;;;;5011388;28;20028;-65
2022/11/27 09:22:36;;;;;;;19.23;11.88;;;7.50;99.90;;;;;;5008595;28;20473;-65
2022/11/27 09:25:02;;;;;;;14.40;9.98;;;7.50;99.90;;;;;;5011625;28;20452;-66
2022/11/27 09:27:28;;;;;;;18.95;11.23;;;7.60;99.90;;;;;;5010788;28;20112;-66
2022/11/27 09:29:53;;;;;;;16.00;9.98;;;7.60;99.90;;;;;;5012363;28;20116;-67
2022/11/27 09:32:19;;;;;;;15.77;10.48;;;7.60;99.90;;;;;;5011062;28;20026;-67
2022/11/27 09:34:44;;;;;;;15.27;10.43;;;7.60;99.90;;;;;;5011527;28;20061;-67
2022/11/27 09:37:10;;;;;;;13.27;10.10;;;7.70;99.90;;;;;;5009424;28;20029;-66
2022/11/27 09:39:36;;;;;;;16.15;10.13;;;7.70;99.90;;;;;;5010980;28;20525;-67
2022/11/27 09:42:05;;;;;;;15.65;10.27;;;7.70;99.90;;;;;;5010083;28;20029;-67
2022/11/27 09:44:47;;;;;;;16.58;10.90;;;7.70;99.90;;;;;;4997419;28;20037;-67
2022/11/27 09:47:31;;;;;;;16.83;10.63;;;7.80;99.90;;;;;;5010016;28;20580;-67
2022/11/27 09:50:06;;;;;;;17.30;8.98;;;7.80;99.90;;;;;;5011576;28;20041;-66
2022/11/27 09:52:41;;;;;;;15.73;9.27;;;7.80;99.90;;;;;;5005845;28;20532;-67
2022/11/27 09:55:22;;;;;;;15.80;9.45;;;7.80;99.90;;;;;;5010076;28;20530;-67
2022/11/27 09:58:11;;;;;;;18.50;10.23;;;7.80;99.90;;;;;;5008765;28;20030;-67
2022/11/27 10:00:37;;;;;;;19.00;10.45;;;7.80;99.90;;;;;;5005626;28;20041;-68
2022/11/27 10:03:04;;;;;;;16.00;10.35;;;7.90;99.90;;;;;;5010316;28;20030;-68
2022/11/27 10:05:56;;;;;;;17.05;11.05;;;7.90;99.90;;;;;;5011204;28;20037;-68
2022/11/27 10:08:34;;;;;;;17.50;10.57;;;7.90;99.90;;;;;;5023319;28;20027;-68
2022/11/27 10:11:18;;;;;;;14.73;10.68;;;8.00;99.90;;;;;;5005258;28;20030;-68
2022/11/27 10:13:52;;;;;;;15.27;10.77;;;8.00;99.90;;;;;;5013190;28;20030;-67
2022/11/27 10:16:27;;;;;;;17.05;10.90;;;8.00;99.90;;;;;;5009185;28;20038;-67
2022/11/27 10:19:10;;;;;;;16.13;11.07;;;8.00;99.90;;;;;;5012162;28;20053;-68
2022/11/27 10:21:55;;;;;;;22.42;11.65;;;8.00;99.90;;;;;;5011136;28;20033;-67
2022/11/27 10:24:44;;;;;;;17.30;11.10;;;8.00;99.90;;;;;;5030616;28;20029;-67
2022/11/27 10:27:26;;;;;;;14.93;10.68;;;8.10;99.90;;;;;;5011963;28;20045;-66
2022/11/27 10:29:54;;;;;;;20.92;9.38;;;8.10;99.90;;;;;;5011551;28;20030;-67
2022/11/27 10:32:28;;;;;;;15.48;9.65;;;8.10;99.90;;;;;;5011528;28;20037;-67
2022/11/27 10:35:13;;;;;;;14.43;9.73;;;8.10;99.90;;;;;;5012018;28;20050;-67
2022/11/27 10:37:47;;;;;;;18.60;11.27;;;8.20;99.90;;;;;;5011359;28;20531;-67
2022/11/27 10:40:12;;;;;;;16.25;10.20;;;8.20;99.90;;;;;;5014248;28;20038;-67
2022/11/27 10:43:23;;;;;;;20.00;11.52;;;8.20;99.90;;;;;;5013778;28;20079;-67
2022/11/27 10:45:58;;;;;;;15.73;10.05;;;8.30;99.90;;;;;;5005821;28;20038;-69
2022/11/27 10:48:24;;;;;;;14.60;9.82;;;8.30;99.90;;;;;;5010342;28;20546;-66
2022/11/27 10:50:50;;;;;;;14.85;9.48;;;8.40;99.90;;;;;;5011416;28;20141;-67
2022/11/27 10:53:32;;;;;;;17.67;10.02;;;8.40;99.90;;;;;;5014609;28;20516;-67
2022/11/27 10:56:30;;;;;;;13.63;9.18;;;8.40;99.90;;;;;;5012475;28;20069;-67
2022/11/27 10:58:57;;;;;;;13.65;8.98;;;8.40;99.90;;;;;;5010802;28;20034;-68
2022/11/27 11:01:25;;;;;;;17.70;9.07;;;8.50;99.90;;;;;;5010374;28;20062;-68
2022/11/27 11:04:04;;;;;;;15.52;8.93;;;8.50;99.90;;;;;;5016193;28;20512;-68
2022/11/27 11:06:32;;;;;;;15.32;8.65;;;8.50;99.90;;;;;;5012460;28;20034;-68
2022/11/27 11:09:18;;;;;;;14.73;9.25;;;8.60;99.90;;;;;;5010363;28;20038;-68
2022/11/27 11:11:44;;;;;;;17.63;9.75;;;8.60;99.90;;;;;;5004867;28;20052;-68
2022/11/27 11:14:24;;;;;;;13.85;8.82;;;8.70;99.90;;;;;;5011878;28;20026;-68
2022/11/27 11:16:52;;;;;;;17.63;8.95;;;8.70;99.90;;;;;;5015690;28;20084;-67
2022/11/27 11:19:32;;;;;;;17.42;9.40;;;8.70;99.90;;;;;;5011892;28;20053;-67
2022/11/27 11:22:02;;;;;;;12.55;8.90;;;8.80;99.90;;;;;;5008008;28;20038;-68
2022/11/27 11:24:31;;;;;;;16.20;9.00;;;8.80;99.90;;;;;;5010315;28;20394;-69
2022/11/27 11:27:20;;;;;;;13.73;8.68;;;8.90;99.90;;;;;;5013151;28;20029;-68
2022/11/27 11:29:50;;;;;;;11.35;8.43;;;8.80;99.90;;;;;;5012337;28;20385;-68
2022/11/27 11:32:19;;;;;;;14.70;9.13;;;8.90;99.90;;;;;;5011023;28;20037;-68
2022/11/27 11:35:07;;;;;;;14.43;9.23;;;8.90;99.90;;;;;;5010471;28;20436;-68
2022/11/27 11:37:37;;;;;;;14.55;9.98;;;8.90;99.90;;;;;;5008638;28;20056;-68
2022/11/27 11:40:13;;;;;;;13.75;9.25;;;9.00;99.90;;;;;;5013341;28;20076;-68
2022/11/27 11:42:57;;;;;;;11.30;7.43;;;9.00;99.90;;;;;;5008670;28;20042;-68
2022/11/27 11:45:25;;;;;;;12.63;8.75;;;9.00;99.90;;;;;;5014023;28;20037;-68
2022/11/27 11:47:59;;;;;;;12.38;8.55;;;9.10;99.90;;;;;;5012828;28;20049;-67
2022/11/27 11:50:53;;;;;;;14.63;8.65;;;9.20;99.90;;;;;;5010887;28;20223;-68
2022/11/27 11:53:33;;;;;;;14.25;8.15;;;9.20;99.90;;;;;;5008992;28;20057;-68
2022/11/27 11:56:20;;;;;;;12.90;8.30;;;9.20;99.90;;;;;;5006346;28;20030;-68
2022/11/27 11:58:57;;;;;;;13.00;8.00;;;9.30;99.90;;;;;;5007009;28;20038;-68
2022/11/27 12:01:35;;;;;;;13.05;8.77;;;9.40;99.90;;;;;;5012564;28;20065;-67
2022/11/27 12:04:30;;;;;;;13.43;8.27;;;9.40;99.90;;;;;;5013162;28;20033;-67
2022/11/27 12:07:14;;;;;;;13.88;8.57;;;9.40;99.90;;;;;;5011659;28;20035;-68
2022/11/27 12:09:58;;;;;;;12.65;7.65;;;9.40;99.90;;;;;;5013817;28;20029;-68
2022/11/27 12:12:53;;;;;;;16.05;8.45;;;9.40;99.90;;;;;;5012194;28;20109;-67
2022/11/27 12:15:28;;;;;;;12.70;7.95;;;9.40;99.90;;;;;;5012119;28;20038;-68
2022/11/27 12:18:03;;;;;;;11.25;7.70;;;9.40;99.90;;;;;;5010108;28;20041;-67
2022/11/27 12:20:50;;;;;;;12.13;8.35;;;9.50;99.90;;;;;;5011790;28;20022;-68
2022/11/27 12:23:38;;;;;;;9.75;7.07;;;9.50;99.90;;;;;;5012187;28;20045;-68
2022/11/27 12:26:31;;;;;;;11.65;8.85;;;9.50;99.90;;;;;;4994096;28;20026;-68
2022/11/27 12:29:03;;;;;;;11.50;7.80;;;9.50;99.90;;;;;;5004561;28;20022;-68
2022/11/27 12:31:52;;;;;;;13.60;8.95;;;9.50;99.90;;;;;;5012633;28;20041;-68
2022/11/27 12:34:56;;;;;;;12.45;8.30;;;9.40;99.90;;;;;;5011769;28;20096;-68
2022/11/27 12:37:50;;;;;;;14.00;7.38;;;9.40;99.90;;;;;;5007766;28;20113;-68
2022/11/27 12:40:39;;;;;;;13.40;8.35;;;9.40;99.90;;;;;;5005124;28;20034;-67
2022/11/27 12:43:18;;;;;;;9.90;7.57;;;9.40;99.90;;;;;;5007044;28;20064;-67
2022/11/27 12:45:49;;;;;;;12.70;7.55;;;9.30;99.90;;;;;;5003758;28;20052;-67
2022/11/27 12:48:39;;;;;;;10.43;7.45;;;9.30;99.90;;;;;;5006577;28;20028;-68
2022/11/27 12:51:30;;;;;;;10.95;7.55;;;9.30;99.90;;;;;;5010265;28;20034;-68
2022/11/27 12:54:11;;;;;;;10.52;7.75;;;9.30;99.90;;;;;;5010489;28;20084;-68
2022/11/27 12:56:48;;;;;;;10.50;7.60;;;9.30;99.90;;;;;;5010861;28;20048;-68
2022/11/27 12:59:46;;;;;;;11.30;7.72;;;9.30;99.90;;;;;;5009446;28;20056;-68